createdAt,value
2023-04-26T00:02:05.758Z,16.38
2023-04-26T00:04:39.328Z,15.40
2023-04-26T00:07:07.853Z,12.85
2023-04-26T00:09:35.728Z,13.95
2023-04-26T00:12:03.379Z,12.43
2023-04-26T00:14:31.032Z,11.98
2023-04-26T00:16:58.707Z,17.27
2023-04-26T00:19:27.805Z,18.00
2023-04-26T00:21:55.477Z,18.10
2023-04-26T00:24:23.187Z,10.55
2023-04-26T00:26:50.855Z,12.15
2023-04-26T00:29:18.552Z,15.37
2023-04-26T00:31:46.312Z,14.90
2023-04-26T00:34:14.036Z,10.13
2023-04-26T00:36:43.131Z,13.95
2023-04-26T00:39:11.072Z,12.10
2023-04-26T00:41:38.823Z,17.65
2023-04-26T00:44:06.761Z,11.30
2023-04-26T00:46:34.469Z,23.05
2023-04-26T00:49:02.160Z,20.55
2023-04-26T00:51:29.929Z,17.93
2023-04-26T00:53:59.153Z,10.00
2023-04-26T00:56:27.360Z,14.20
2023-04-26T00:58:55.284Z,12.32
2023-04-26T01:01:23.327Z,19.13
2023-04-26T01:03:51.199Z,10.05
2023-04-26T01:06:19.128Z,11.15
2023-04-26T01:08:46.931Z,13.97
2023-04-26T01:11:16.098Z,13.13
2023-04-26T01:13:43.844Z,13.15
2023-04-26T01:16:11.759Z,11.98
2023-04-26T01:18:39.476Z,11.30
2023-04-26T01:21:08.928Z,15.10
2023-04-26T01:23:38.009Z,11.17
2023-04-26T01:26:05.684Z,15.57
2023-04-26T01:28:35.504Z,16.23
2023-04-26T01:31:03.230Z,14.30
2023-04-26T01:33:30.886Z,19.38
2023-04-26T01:35:58.749Z,18.27
2023-04-26T01:38:26.468Z,18.87
2023-04-26T01:40:55.525Z,10.98
2023-04-26T01:43:23.534Z,24.33
2023-04-26T01:45:51.312Z,16.25
2023-04-26T01:48:18.945Z,17.80
2023-04-26T01:50:46.823Z,11.85
2023-04-26T01:53:14.715Z,26.17
2023-04-26T01:55:42.316Z,12.30
2023-04-26T01:58:11.396Z,12.18
2023-04-26T02:00:39.083Z,16.90
2023-04-26T02:03:06.852Z,18.73
2023-04-26T02:05:35.347Z,16.55
2023-04-26T02:08:03.151Z,14.60
2023-04-26T02:10:30.880Z,19.05
2023-04-26T02:12:58.520Z,17.52
2023-04-26T02:15:27.552Z,17.02
2023-04-26T02:17:55.644Z,15.70
2023-04-26T02:20:23.461Z,13.77
2023-04-26T02:22:51.132Z,13.02
2023-04-26T02:25:18.964Z,11.50
2023-04-26T02:27:46.659Z,13.15
2023-04-26T02:30:14.678Z,17.50
2023-04-26T02:32:43.852Z,13.07
2023-04-26T02:35:11.812Z,14.02
2023-04-26T02:37:39.474Z,20.23
2023-04-26T02:40:22.929Z,19.27
2023-04-26T02:42:50.637Z,14.10
2023-04-26T02:45:18.418Z,15.38
2023-04-26T02:47:47.527Z,16.85
2023-04-26T02:50:15.265Z,16.05
2023-04-26T02:52:42.934Z,16.92
2023-04-26T02:55:10.945Z,17.38
2023-04-26T02:57:38.608Z,18.33
2023-04-26T03:00:08.188Z,14.65
2023-04-26T03:02:36.623Z,16.50
2023-04-26T03:05:06.492Z,22.02
2023-04-26T03:07:34.206Z,18.08
2023-04-26T03:10:01.968Z,15.77
2023-04-26T03:12:29.589Z,16.15
2023-04-26T03:14:57.493Z,15.23
2023-04-26T03:17:25.148Z,17.55
2023-04-26T03:19:52.907Z,14.88
2023-04-26T03:22:22.698Z,14.03
2023-04-26T03:24:50.980Z,15.32
2023-04-26T03:27:18.583Z,13.05
2023-04-26T03:29:46.194Z,17.30
2023-04-26T03:32:13.902Z,17.40
2023-04-26T03:34:41.562Z,17.73
2023-04-26T03:37:09.176Z,20.33
2023-04-26T03:39:38.319Z,17.52
2023-04-26T03:42:06.230Z,20.02
2023-04-26T03:44:34.009Z,15.57
2023-04-26T03:47:01.686Z,13.13
2023-04-26T03:49:29.313Z,21.20
2023-04-26T03:51:57.285Z,16.65
2023-04-26T03:54:24.921Z,16.40
2023-04-26T03:56:54.032Z,24.02
2023-04-26T03:59:21.678Z,21.00
2023-04-26T04:01:49.370Z,14.90
2023-04-26T04:04:17.293Z,18.38
2023-04-26T04:06:45.224Z,19.00
2023-04-26T04:09:12.933Z,18.15
2023-04-26T04:11:40.621Z,19.13
2023-04-26T04:14:09.627Z,13.88
2023-04-26T04:16:37.278Z,14.20
2023-04-26T04:19:05.173Z,14.90
2023-04-26T04:21:32.860Z,16.85
2023-04-26T04:24:00.732Z,19.33
2023-04-26T04:26:29.143Z,19.42
2023-04-26T04:28:57.569Z,19.83
2023-04-26T04:31:26.666Z,18.00
2023-04-26T04:33:54.360Z,15.27
2023-04-26T04:36:22.084Z,11.52
2023-04-26T04:38:49.988Z,14.32
2023-04-26T04:41:17.940Z,16.20
2023-04-26T04:43:45.656Z,17.13
2023-04-26T04:46:13.400Z,16.95
2023-04-26T04:48:43.305Z,30.38
2023-04-26T04:51:11.002Z,24.40
2023-04-26T04:53:38.668Z,16.35
2023-04-26T04:56:07.712Z,14.38
2023-04-26T04:58:36.129Z,20.95
2023-04-26T05:01:03.802Z,11.00
2023-04-26T05:03:33.828Z,11.20
2023-04-26T05:06:03.123Z,17.70
2023-04-26T05:08:31.291Z,17.02
2023-04-26T05:10:59.331Z,16.48
2023-04-26T05:13:26.942Z,10.47
2023-04-26T05:15:54.674Z,14.77
2023-04-26T05:18:22.930Z,13.23
2023-04-26T05:20:50.575Z,16.65
2023-04-26T05:23:19.640Z,9.48
2023-04-26T05:25:47.289Z,12.75
2023-04-26T05:28:14.991Z,16.10
2023-04-26T05:30:42.728Z,10.77
2023-04-26T05:33:11.151Z,13.23
2023-04-26T05:35:38.915Z,15.93
2023-04-26T05:38:06.592Z,14.18
2023-04-26T05:40:35.676Z,13.40
2023-04-26T05:43:03.404Z,12.35
2023-04-26T05:45:31.086Z,10.57
2023-04-26T05:47:58.830Z,10.60
2023-04-26T05:50:26.639Z,14.32
2023-04-26T05:52:54.330Z,13.50
2023-04-26T05:55:22.306Z,14.18
2023-04-26T05:57:51.537Z,19.30
2023-04-26T06:00:22.723Z,14.50
2023-04-26T06:02:51.785Z,11.45
2023-04-26T06:05:20.064Z,13.32
2023-04-26T06:07:47.817Z,13.30
2023-04-26T06:10:17.757Z,14.63
2023-04-26T06:12:45.958Z,13.48
2023-04-26T06:15:15.154Z,21.20
2023-04-26T06:17:43.028Z,12.95
2023-04-26T06:20:11.343Z,10.45
2023-04-26T06:23:00.660Z,15.88
2023-04-26T06:25:28.296Z,20.13
2023-04-26T06:27:56.103Z,10.87
2023-04-26T06:30:25.461Z,8.90
2023-04-26T06:32:53.205Z,8.55
2023-04-26T06:35:21.163Z,17.25
2023-04-26T06:37:49.060Z,12.50
2023-04-26T06:40:17.236Z,12.03
2023-04-26T06:42:44.978Z,9.37
2023-04-26T06:45:13.084Z,13.77
2023-04-26T06:47:42.178Z,11.48
2023-04-26T06:50:11.180Z,9.43
2023-04-26T06:52:38.869Z,9.25
2023-04-26T06:55:07.478Z,9.10
2023-04-26T06:57:35.198Z,25.92
2023-04-26T07:00:03.608Z,7.43
2023-04-26T07:02:31.727Z,6.83
2023-04-26T07:05:01.010Z,11.65
2023-04-26T07:07:28.792Z,9.10
2023-04-26T07:09:56.521Z,9.88
2023-04-26T07:12:24.212Z,7.05
2023-04-26T07:14:51.900Z,9.63
2023-04-26T07:17:19.782Z,5.82
2023-04-26T07:19:47.452Z,10.03
2023-04-26T07:22:16.604Z,5.65
2023-04-26T07:24:44.470Z,8.63
2023-04-26T07:27:12.158Z,7.63
2023-04-26T07:29:40.147Z,11.85
2023-04-26T07:32:07.875Z,7.55
2023-04-26T07:34:35.682Z,13.60
2023-04-26T07:37:03.398Z,5.22
2023-04-26T07:39:32.519Z,7.43
2023-04-26T07:42:00.349Z,3.93
2023-04-26T07:44:28.606Z,11.80
2023-04-26T07:46:56.379Z,8.93
2023-04-26T07:49:24.240Z,7.25
2023-04-26T07:51:52.558Z,12.15
2023-04-26T07:54:20.421Z,7.95
2023-04-26T07:56:49.507Z,6.00
2023-04-26T07:59:17.490Z,20.27
2023-04-26T08:01:45.282Z,4.72
2023-04-26T08:04:13.408Z,8.80
2023-04-26T08:06:45.022Z,6.90
2023-04-26T08:09:12.780Z,5.38
2023-04-26T08:11:41.871Z,11.30
2023-04-26T08:14:11.932Z,6.60
2023-04-26T08:16:39.589Z,11.60
2023-04-26T08:19:07.322Z,6.28
2023-04-26T08:21:35.030Z,8.15
2023-04-26T08:24:02.765Z,6.53
2023-04-26T08:26:30.432Z,6.90
2023-04-26T08:28:58.388Z,5.40
2023-04-26T08:31:27.783Z,5.07
2023-04-26T08:33:55.640Z,7.00
2023-04-26T08:36:23.361Z,6.47
2023-04-26T08:38:51.214Z,12.60
2023-04-26T08:41:24.582Z,5.07
2023-04-26T08:43:52.883Z,10.95
2023-04-26T08:46:21.669Z,7.25
2023-04-26T08:49:10.276Z,6.72
2023-04-26T08:51:38.394Z,10.18
2023-04-26T08:54:07.739Z,9.90
2023-04-26T08:56:36.388Z,7.38
2023-04-26T08:59:04.258Z,6.10
2023-04-26T09:01:32.917Z,2.97
2023-04-26T09:04:03.072Z,4.93
2023-04-26T09:06:31.292Z,3.17
2023-04-26T09:08:59.341Z,11.18
2023-04-26T09:11:27.025Z,3.45
2023-04-26T09:13:55.025Z,5.18
2023-04-26T09:16:36.151Z,3.07
2023-04-26T09:19:05.317Z,5.70
2023-04-26T09:21:33.502Z,2.47
2023-04-26T09:24:05.038Z,4.82
2023-04-26T09:26:33.297Z,2.45
2023-04-26T09:29:14.634Z,5.25
2023-04-26T09:31:46.364Z,5.38
2023-04-26T09:34:16.956Z,7.32
2023-04-26T09:36:49.277Z,7.88
2023-04-26T09:39:17.508Z,5.90
2023-04-26T09:41:45.852Z,4.90
2023-04-26T09:44:23.321Z,6.30
2023-04-26T09:47:02.212Z,6.65
2023-04-26T09:49:33.355Z,7.32
2023-04-26T09:52:02.493Z,6.03
2023-04-26T09:54:40.955Z,4.47
2023-04-26T09:57:08.831Z,4.53
2023-04-26T09:59:44.075Z,6.00
2023-04-26T10:02:17.700Z,6.83
2023-04-26T10:04:49.054Z,7.68
2023-04-26T10:10:04.270Z,5.85
2023-04-26T10:12:32.062Z,7.15
2023-04-26T10:14:59.882Z,3.47
2023-04-26T10:17:27.693Z,6.82
2023-04-26T10:19:59.229Z,9.40
2023-04-26T10:22:30.546Z,4.60
2023-04-26T10:25:00.458Z,8.90
2023-04-26T10:27:54.768Z,7.43
2023-04-26T10:30:27.021Z,4.15
2023-04-26T10:33:16.287Z,5.90
2023-04-26T10:36:06.657Z,9.85
2023-04-26T10:38:35.871Z,5.57
2023-04-26T10:41:56.392Z,4.63
2023-04-26T10:44:45.484Z,3.72
2023-04-26T10:47:26.535Z,4.43
2023-04-26T10:49:54.460Z,4.50
2023-04-26T10:52:24.427Z,7.40
2023-04-26T10:54:54.773Z,3.65
2023-04-26T10:57:24.062Z,6.05
2023-04-26T11:00:17.281Z,3.83
2023-04-26T11:02:56.489Z,6.40
2023-04-26T11:05:41.073Z,7.53
2023-04-26T11:08:17.964Z,8.95
2023-04-26T11:10:51.213Z,5.88
2023-04-26T11:13:19.445Z,4.55
2023-04-26T11:15:49.138Z,4.30
2023-04-26T11:18:22.469Z,6.85
2023-04-26T11:20:50.564Z,5.70
2023-04-26T11:23:21.310Z,3.78
2023-04-26T11:25:49.558Z,7.28
2023-04-26T11:28:17.427Z,4.78
2023-04-26T11:30:45.409Z,6.63
2023-04-26T11:33:19.017Z,6.93
2023-04-26T11:35:47.671Z,4.40
2023-04-26T11:38:15.696Z,8.05
2023-04-26T11:40:45.627Z,4.63
2023-04-26T11:43:15.613Z,5.10
2023-04-26T11:45:43.525Z,3.97
2023-04-26T11:48:12.575Z,6.03
2023-04-26T11:50:41.274Z,8.55
2023-04-26T11:53:10.121Z,5.90
2023-04-26T11:55:37.869Z,3.97
2023-04-26T11:58:14.167Z,6.35
2023-04-26T12:00:58.085Z,7.88
2023-04-26T12:03:30.764Z,6.35
2023-04-26T12:05:58.855Z,4.07
2023-04-26T12:08:27.089Z,8.90
2023-04-26T12:10:55.157Z,28.23
2023-04-26T12:13:26.169Z,5.00
2023-04-26T12:15:54.240Z,5.72
2023-04-26T12:18:23.701Z,7.45
2023-04-26T12:20:52.060Z,7.68
2023-04-26T12:23:40.949Z,5.00
2023-04-26T12:26:11.237Z,7.05
2023-04-26T12:28:41.356Z,3.95
2023-04-26T12:31:09.395Z,4.90
2023-04-26T12:33:37.490Z,8.40
2023-04-26T12:36:09.542Z,5.00
2023-04-26T12:38:37.412Z,4.45
2023-04-26T12:41:05.330Z,8.10
2023-04-26T12:43:33.087Z,3.83
2023-04-26T12:46:02.432Z,3.45
2023-04-26T12:48:30.216Z,5.18
2023-04-26T12:50:58.129Z,2.92
2023-04-26T12:53:25.923Z,3.50
2023-04-26T12:55:53.662Z,7.53
2023-04-26T12:58:22.497Z,7.25
2023-04-26T13:00:55.967Z,5.95
2023-04-26T13:03:25.329Z,7.77
2023-04-26T13:05:53.489Z,30.55
2023-04-26T13:08:22.628Z,7.65
2023-04-26T13:10:50.349Z,9.97
2023-04-26T13:13:19.198Z,8.02
2023-04-26T13:15:46.995Z,6.57
2023-04-26T13:18:16.068Z,5.93
2023-04-26T13:20:45.711Z,5.22
2023-04-26T13:23:13.444Z,8.70
2023-04-26T13:25:42.298Z,4.18
2023-04-26T13:28:10.253Z,4.00
2023-04-26T13:30:37.962Z,7.30
2023-04-26T13:33:05.777Z,4.70
2023-04-26T13:35:33.516Z,4.72
2023-04-26T13:38:03.004Z,6.18
2023-04-26T13:40:30.776Z,3.70
2023-04-26T13:42:58.513Z,1.97
2023-04-26T13:45:26.192Z,6.35
2023-04-26T13:47:54.014Z,3.80
2023-04-26T13:50:21.689Z,6.40
2023-04-26T13:52:50.979Z,4.73
2023-04-26T13:55:20.094Z,2.73
2023-04-26T13:57:47.741Z,6.90
2023-04-26T14:00:17.087Z,5.55
2023-04-26T14:02:45.220Z,3.83
2023-04-26T14:05:13.269Z,5.75
2023-04-26T14:07:42.009Z,5.82
2023-04-26T14:10:10.451Z,4.75
2023-04-26T14:12:39.811Z,3.15
2023-04-26T14:15:08.877Z,3.42
2023-04-26T14:17:37.149Z,4.07
2023-04-26T14:20:06.728Z,2.90
2023-04-26T14:22:35.634Z,5.90
2023-04-26T14:25:03.479Z,5.20
2023-04-26T14:27:31.239Z,7.32
2023-04-26T14:30:00.462Z,5.53
2023-04-26T14:32:28.559Z,4.38
2023-04-26T14:34:56.253Z,7.97
2023-04-26T14:37:24.097Z,4.65
2023-04-26T14:39:52.077Z,2.83
2023-04-26T14:42:19.764Z,4.38
2023-04-26T14:44:47.703Z,5.78
2023-04-26T14:47:16.859Z,4.35
2023-04-26T14:49:44.583Z,4.82
2023-04-26T14:52:12.336Z,4.75
2023-04-26T14:54:40.211Z,4.65
2023-04-26T14:57:08.016Z,5.63
2023-04-26T14:59:36.538Z,1.95
2023-04-26T15:02:05.131Z,1.77
2023-04-26T15:04:35.752Z,7.40
2023-04-26T15:07:04.356Z,5.40
2023-04-26T15:09:32.274Z,5.30
2023-04-26T15:12:00.028Z,6.43
2023-04-26T15:14:27.756Z,5.88
2023-04-26T15:16:55.608Z,3.53
2023-04-26T15:19:23.332Z,3.55
2023-04-26T15:21:52.468Z,5.97
2023-04-26T15:24:20.165Z,4.88
2023-04-26T15:26:47.971Z,9.63
2023-04-26T15:29:15.867Z,3.85
2023-04-26T15:31:43.759Z,4.90
2023-04-26T15:34:11.505Z,6.10
2023-04-26T15:36:39.225Z,5.15
2023-04-26T15:39:08.690Z,3.83
2023-04-26T15:41:36.692Z,6.53
2023-04-26T15:44:04.812Z,9.75
2023-04-26T15:46:32.494Z,5.72
2023-04-26T15:49:00.204Z,5.60
2023-04-26T15:51:28.002Z,5.20
2023-04-26T15:53:55.728Z,4.15
2023-04-26T15:56:26.198Z,7.00
2023-04-26T15:58:53.928Z,5.90
2023-04-26T16:01:21.775Z,5.22
2023-04-26T16:03:50.010Z,6.13
2023-04-26T16:06:18.075Z,5.75
2023-04-26T16:08:45.963Z,4.53
2023-04-26T16:11:13.836Z,5.57
2023-04-26T16:13:44.572Z,8.35
2023-04-26T16:16:12.682Z,7.85
2023-04-26T16:18:40.732Z,8.43
2023-04-26T16:21:09.721Z,7.88
2023-04-26T16:23:38.038Z,6.90
2023-04-26T16:26:06.213Z,6.95
2023-04-26T16:28:34.247Z,10.07
2023-04-26T16:31:03.971Z,4.90
2023-04-26T16:33:31.993Z,5.97
2023-04-26T16:35:59.730Z,2.97
2023-04-26T16:38:27.440Z,8.07
2023-04-26T16:40:58.092Z,7.13
2023-04-26T16:43:26.917Z,4.45
2023-04-26T16:45:59.215Z,6.25
2023-04-26T16:48:28.640Z,5.18
2023-04-26T16:50:56.367Z,5.63
2023-04-26T16:53:24.195Z,6.55
2023-04-26T16:55:52.245Z,5.95
2023-04-26T16:58:20.549Z,4.85
2023-04-26T17:00:48.280Z,4.15
2023-04-26T17:03:16.289Z,4.03
2023-04-26T17:05:47.702Z,4.17
2023-04-26T17:08:15.674Z,5.13
2023-04-26T17:10:44.358Z,5.75
2023-04-26T17:13:12.749Z,4.53
2023-04-26T17:15:41.391Z,4.20
2023-04-26T17:18:10.144Z,5.13
2023-04-26T17:20:38.097Z,6.25
2023-04-26T17:23:08.582Z,7.07
2023-04-26T17:25:36.410Z,4.07
2023-04-26T17:28:19.628Z,5.87
2023-04-26T17:30:47.471Z,7.37
2023-04-26T17:33:15.173Z,6.20
2023-04-26T17:35:43.031Z,4.30
2023-04-26T17:38:12.239Z,7.78
2023-04-26T17:40:40.380Z,7.63
2023-04-26T17:43:08.112Z,6.25
2023-04-26T17:45:35.863Z,6.50
2023-04-26T17:48:04.460Z,7.93
2023-04-26T17:50:32.186Z,5.63
2023-04-26T17:52:59.870Z,5.10
2023-04-26T17:55:28.976Z,5.25
2023-04-26T17:57:56.654Z,6.00
2023-04-26T18:00:24.913Z,8.00
2023-04-26T18:02:53.825Z,7.88
2023-04-26T18:05:21.807Z,5.43
2023-04-26T18:07:49.473Z,10.77
2023-04-26T18:10:17.208Z,6.20
2023-04-26T18:12:46.538Z,6.70
2023-04-26T18:15:15.046Z,6.90
2023-04-26T18:17:43.825Z,7.93
2023-04-26T18:20:13.259Z,5.70
2023-04-26T18:22:41.689Z,9.77
2023-04-26T18:25:10.021Z,8.85
2023-04-26T18:27:37.744Z,8.00
2023-04-26T18:30:08.293Z,8.97
2023-04-26T18:32:36.066Z,8.35
2023-04-26T18:35:06.158Z,10.60
2023-04-26T18:37:34.010Z,5.68
2023-04-26T18:40:02.006Z,9.30
2023-04-26T18:42:29.744Z,7.00
2023-04-26T18:44:57.677Z,10.20
2023-04-26T18:47:27.333Z,5.63
2023-04-26T18:49:55.032Z,9.90
2023-04-26T18:52:22.723Z,7.22
2023-04-26T18:54:50.691Z,6.13
2023-04-26T18:57:22.153Z,7.35
2023-04-26T18:59:49.898Z,6.80
2023-04-26T19:02:17.920Z,5.32
2023-04-26T19:04:50.477Z,8.07
2023-04-26T19:07:18.435Z,6.03
2023-04-26T19:09:54.326Z,6.40
2023-04-26T19:12:22.532Z,8.02
2023-04-26T19:14:50.182Z,7.93
2023-04-26T19:17:17.851Z,7.28
2023-04-26T19:19:47.135Z,7.50
2023-04-26T19:22:14.933Z,9.63
2023-04-26T19:24:42.602Z,8.02
2023-04-26T19:27:10.550Z,8.20
2023-04-26T19:29:38.255Z,8.40
2023-04-26T19:32:07.328Z,9.48
2023-04-26T19:34:36.429Z,7.20
2023-04-26T19:37:05.785Z,6.40
2023-04-26T19:39:33.683Z,8.32
2023-04-26T19:42:03.366Z,7.82
2023-04-26T19:44:31.536Z,6.88
2023-04-26T19:46:59.834Z,10.43
2023-04-26T19:49:29.104Z,5.53
2023-04-26T19:51:57.057Z,8.38
2023-04-26T19:54:26.329Z,6.40
2023-04-26T19:56:54.277Z,8.57
2023-04-26T19:59:21.963Z,7.80
2023-04-26T20:01:51.029Z,6.32
2023-04-26T20:04:21.377Z,11.60
2023-04-26T20:06:49.359Z,5.28
2023-04-26T20:09:17.278Z,11.13
2023-04-26T20:11:46.371Z,7.13
2023-04-26T20:14:14.026Z,6.10
2023-04-26T20:16:41.775Z,10.55
2023-04-26T20:19:10.318Z,19.97
2023-04-26T20:21:38.286Z,7.47
2023-04-26T20:24:06.920Z,7.95
2023-04-26T20:26:34.687Z,7.78
2023-04-26T20:29:03.788Z,9.23
2023-04-26T20:31:32.558Z,10.45
2023-04-26T20:34:00.885Z,8.80
2023-04-26T20:36:28.798Z,10.95
2023-04-26T20:38:56.620Z,10.90
2023-04-26T20:41:24.318Z,6.37
2023-04-26T20:43:53.433Z,7.47
2023-04-26T20:46:22.938Z,11.35
2023-04-26T20:48:50.646Z,7.22
2023-04-26T20:51:18.342Z,14.45
2023-04-26T20:53:46.227Z,9.25
2023-04-26T20:56:13.922Z,8.75
2023-04-26T20:58:41.585Z,10.13
2023-04-26T21:01:10.165Z,6.78
2023-04-26T21:03:39.893Z,7.65
2023-04-26T21:06:07.756Z,9.82
2023-04-26T21:08:36.794Z,8.43
2023-04-26T21:11:04.861Z,7.90
2023-04-26T21:13:32.774Z,6.38
2023-04-26T21:16:00.692Z,6.10
2023-04-26T21:18:28.885Z,8.07
2023-04-26T21:20:58.003Z,14.38
2023-04-26T21:23:25.679Z,13.03
2023-04-26T21:25:53.510Z,6.57
2023-04-26T21:28:21.280Z,10.73
2023-04-26T21:30:49.008Z,6.68
2023-04-26T21:33:16.932Z,8.90
2023-04-26T21:35:44.636Z,7.60
2023-04-26T21:38:13.729Z,10.95
2023-04-26T21:40:41.418Z,8.13
2023-04-26T21:43:09.093Z,10.02
2023-04-26T21:45:37.010Z,12.20
2023-04-26T21:48:05.139Z,8.82
2023-04-26T21:50:32.829Z,7.90
2023-04-26T21:53:00.528Z,8.07
2023-04-26T21:55:29.902Z,9.30
2023-04-26T21:57:57.624Z,9.32
2023-04-26T22:00:27.088Z,8.98
2023-04-26T22:02:54.951Z,10.50
2023-04-26T22:05:25.800Z,11.20
2023-04-26T22:07:53.813Z,7.57
2023-04-26T22:10:21.581Z,12.82
2023-04-26T22:12:50.852Z,8.10
2023-04-26T22:15:18.592Z,9.83
2023-04-26T22:17:46.579Z,7.95
2023-04-26T22:20:14.370Z,9.88
2023-04-26T22:22:42.059Z,8.77
2023-04-26T22:25:10.674Z,8.65
2023-04-26T22:27:38.439Z,9.10
2023-04-26T22:30:22.777Z,11.35
2023-04-26T22:32:54.746Z,9.17
2023-04-26T22:35:22.941Z,10.40
2023-04-26T22:37:50.738Z,11.32
2023-04-26T22:40:19.288Z,10.60
2023-04-26T22:42:47.015Z,9.40
2023-04-26T22:45:16.216Z,7.65
2023-04-26T22:47:44.231Z,15.57
2023-04-26T22:50:12.973Z,10.15
2023-04-26T22:52:41.050Z,11.50
2023-04-26T22:55:09.879Z,11.77
2023-04-26T22:57:37.803Z,15.75
2023-04-26T23:00:09.569Z,8.30
2023-04-26T23:02:38.996Z,10.45
2023-04-26T23:05:09.701Z,11.30
2023-04-26T23:07:37.702Z,15.10
2023-04-26T23:10:06.314Z,12.70
2023-04-26T23:12:34.516Z,10.85
2023-04-26T23:15:03.649Z,9.43
2023-04-26T23:17:32.154Z,13.10
2023-04-26T23:20:01.510Z,14.75
2023-04-26T23:22:29.233Z,8.90
2023-04-26T23:24:56.935Z,12.38
2023-04-26T23:27:25.281Z,11.67
2023-04-26T23:29:52.936Z,14.48
2023-04-26T23:32:20.575Z,11.02
2023-04-26T23:34:48.233Z,10.23
2023-04-26T23:37:17.333Z,13.02
2023-04-26T23:39:45.070Z,13.13
2023-04-26T23:42:26.217Z,8.60
2023-04-26T23:44:53.854Z,12.50
2023-04-26T23:47:21.750Z,14.73
2023-04-26T23:49:49.432Z,14.60
2023-04-26T23:52:18.716Z,17.05
2023-04-26T23:54:46.388Z,10.80
2023-04-26T23:57:14.111Z,14.00
2023-04-26T23:59:41.768Z,13.65
